createdAt,value
2023-05-02T00:01:05.258Z,96209.31
2023-05-02T00:03:34.915Z,96196.41
2023-05-02T00:06:03.730Z,96201.56
2023-05-02T00:08:33.011Z,96207.03
2023-05-02T00:11:03.636Z,96206.00
2023-05-02T00:17:59.100Z,96203.25
2023-05-02T00:20:28.478Z,96205.50
2023-05-02T00:27:09.571Z,96206.88
2023-05-02T00:29:39.284Z,96204.63
2023-05-02T00:36:28.895Z,96214.47
2023-05-02T00:43:11.517Z,96209.94
2023-05-02T00:45:42.366Z,96208.13
2023-05-02T00:57:14.792Z,96220.97
2023-05-02T00:59:44.293Z,96219.25
2023-05-02T01:02:36.141Z,96219.63
2023-05-02T01:05:13.502Z,96218.91
2023-05-02T01:12:04.944Z,96220.84
2023-05-02T01:14:37.110Z,96221.69
2023-05-02T01:17:09.683Z,96226.16
2023-05-02T01:24:05.200Z,96229.53
2023-05-02T01:26:38.305Z,96222.47
2023-05-02T01:33:30.673Z,96236.59
2023-05-02T01:35:59.970Z,96244.03
2023-05-02T01:42:47.524Z,96254.66
2023-05-02T01:45:17.336Z,96265.19
2023-05-02T01:47:47.115Z,96263.53
2023-05-02T01:59:21.321Z,96239.09
2023-05-02T02:01:52.457Z,96260.53
2023-05-02T02:08:40.219Z,96250.66
2023-05-02T02:11:11.767Z,96261.06
2023-05-02T02:18:12.096Z,96255.59
2023-05-02T02:20:44.588Z,96256.13
2023-05-02T02:23:14.390Z,96255.91
2023-05-02T02:30:02.854Z,96260.59
2023-05-02T02:32:32.331Z,96255.50
2023-05-02T02:39:27.407Z,96263.09
2023-05-02T02:42:05.002Z,96256.97
2023-05-02T02:49:00.122Z,96268.06
2023-05-02T02:51:34.952Z,96268.97
2023-05-02T02:54:23.033Z,96275.72
2023-05-02T02:57:02.530Z,96280.19
2023-05-02T03:03:53.826Z,96277.50
2023-05-02T03:10:29.434Z,96281.47
2023-05-02T03:13:01.606Z,96284.25
2023-05-02T03:19:49.461Z,96295.34
2023-05-02T03:22:18.682Z,96289.53
2023-05-02T03:24:48.053Z,96275.63
2023-05-02T03:27:17.458Z,96290.97
2023-05-02T03:29:48.090Z,96294.22
2023-05-02T03:32:17.391Z,96294.72
2023-05-02T03:34:46.466Z,96299.59
2023-05-02T03:37:15.885Z,96292.78
2023-05-02T03:39:44.777Z,96296.91
2023-05-02T03:42:14.379Z,96302.72
2023-05-02T03:44:43.470Z,96303.94
2023-05-02T03:51:41.060Z,96313.00
2023-05-02T03:54:10.465Z,96313.63
2023-05-02T04:01:04.363Z,96320.47
2023-05-02T04:03:33.980Z,96322.94
2023-05-02T04:10:29.099Z,96323.31
2023-05-02T04:12:58.397Z,96334.06
2023-05-02T04:15:28.003Z,96336.78
2023-05-02T04:17:57.340Z,96337.88
2023-05-02T04:20:26.505Z,96339.16
2023-05-02T04:22:55.698Z,96343.28
2023-05-02T04:25:24.569Z,96349.44
2023-05-02T04:27:55.634Z,96346.38
2023-05-02T04:30:26.048Z,96352.19
2023-05-02T04:32:55.420Z,96343.81
2023-05-02T04:35:24.751Z,96349.06
2023-05-02T04:37:54.048Z,96346.84
2023-05-02T04:40:23.247Z,96341.41
2023-05-02T04:47:00.246Z,96361.16
2023-05-02T04:49:29.963Z,96365.66
2023-05-02T05:01:04.110Z,96373.03
2023-05-02T05:03:35.978Z,96376.00
2023-05-02T05:06:05.619Z,96369.84
2023-05-02T05:08:34.986Z,96379.56
2023-05-02T05:11:05.505Z,96374.03
2023-05-02T05:13:34.928Z,96372.50
2023-05-02T05:16:04.386Z,96368.31
2023-05-02T05:18:41.109Z,96389.28
2023-05-02T05:21:11.021Z,96383.47
2023-05-02T05:23:40.833Z,96392.41
2023-05-02T05:26:15.861Z,96394.69
2023-05-02T05:28:45.683Z,96395.50
2023-05-02T05:31:17.823Z,96392.22
2023-05-02T05:33:48.703Z,96392.09
2023-05-02T05:36:18.892Z,96399.19
2023-05-02T05:38:48.286Z,96383.28
2023-05-02T05:41:17.893Z,96399.75
2023-05-02T05:43:47.397Z,96401.47
2023-05-02T05:46:17.629Z,96408.81
2023-05-02T05:48:48.455Z,96412.22
2023-05-02T05:51:17.959Z,96404.44
2023-05-02T05:53:49.302Z,96418.22
2023-05-02T05:56:19.424Z,96416.72
2023-05-02T06:03:01.881Z,96432.19
2023-05-02T06:05:32.896Z,96431.16
2023-05-02T06:12:21.878Z,96436.41
2023-05-02T06:14:52.932Z,96437.31
2023-05-02T06:21:42.210Z,96451.75
2023-05-02T06:28:24.132Z,96444.13
2023-05-02T06:31:01.617Z,96456.06
2023-05-02T06:37:46.315Z,96467.00
2023-05-02T06:40:16.820Z,96463.06
2023-05-02T06:42:47.271Z,96467.31
2023-05-02T06:45:17.895Z,96472.44
2023-05-02T06:47:48.035Z,96470.47
2023-05-02T06:50:19.964Z,96473.94
2023-05-02T06:52:51.216Z,96470.22
2023-05-02T06:55:22.165Z,96479.69
2023-05-02T06:57:53.184Z,96480.41
2023-05-02T07:00:24.376Z,96476.38
2023-05-02T07:02:54.419Z,96480.22
2023-05-02T07:05:24.982Z,96475.19
2023-05-02T07:07:57.546Z,96478.94
2023-05-02T07:10:28.811Z,96483.31
2023-05-02T07:13:01.778Z,96488.22
2023-05-02T07:15:33.451Z,96492.78
2023-05-02T07:18:04.832Z,96498.25
2023-05-02T07:20:36.040Z,96495.81
2023-05-02T07:23:07.075Z,96484.72
2023-05-02T07:25:36.972Z,96501.75
2023-05-02T07:28:06.816Z,96507.00
2023-05-02T07:30:36.187Z,96502.59
2023-05-02T07:33:05.972Z,96514.03
2023-05-02T07:35:35.401Z,96505.16
2023-05-02T07:38:06.763Z,96500.38
2023-05-02T07:40:36.046Z,96514.25
2023-05-02T07:43:05.452Z,96509.13
2023-05-02T07:45:36.223Z,96516.47
2023-05-02T07:48:09.516Z,96523.47
2023-05-02T07:54:48.948Z,96528.38
2023-05-02T07:57:20.243Z,96531.19
2023-05-02T08:04:09.224Z,96535.19
2023-05-02T08:06:38.733Z,96530.00
2023-05-02T08:16:25.261Z,96546.25
2023-05-02T08:18:55.430Z,96547.50
2023-05-02T08:21:28.216Z,96552.03
2023-05-02T08:24:00.291Z,96556.94
2023-05-02T08:26:29.680Z,96550.00
2023-05-02T08:28:58.570Z,96551.44
2023-05-02T08:31:29.462Z,96550.25
2023-05-02T08:33:58.703Z,96554.75
2023-05-02T08:36:29.243Z,96552.97
2023-05-02T08:38:58.440Z,96561.97
2023-05-02T08:41:28.136Z,96564.38
2023-05-02T08:43:58.870Z,96560.13
2023-05-02T08:46:31.279Z,96557.13
2023-05-02T08:49:01.382Z,96559.22
2023-05-02T08:51:33.194Z,96559.19
2023-05-02T08:54:04.458Z,96558.50
2023-05-02T08:56:35.193Z,96566.31
2023-05-02T08:59:04.900Z,96554.28
2023-05-02T09:01:35.619Z,96568.69
2023-05-02T09:04:05.729Z,96569.19
2023-05-02T09:10:47.865Z,96572.91
2023-05-02T09:13:31.202Z,96578.56
2023-05-02T09:20:19.881Z,96576.31
2023-05-02T09:22:53.503Z,96572.53
2023-05-02T09:29:41.237Z,96576.09
2023-05-02T09:32:10.523Z,96579.06
2023-05-02T09:34:40.246Z,96569.81
2023-05-02T09:37:13.117Z,96571.41
2023-05-02T09:39:42.536Z,96579.13
2023-05-02T09:42:11.824Z,96593.81
2023-05-02T09:44:41.235Z,96593.00
2023-05-02T09:47:10.937Z,96587.19
2023-05-02T09:49:45.662Z,96592.25
2023-05-02T09:52:17.942Z,96595.44
2023-05-02T09:54:48.351Z,96592.06
2023-05-02T09:57:17.664Z,96591.28
2023-05-02T09:59:57.101Z,96593.44
2023-05-02T10:02:27.249Z,96588.16
2023-05-02T10:04:59.378Z,96593.03
2023-05-02T10:07:30.529Z,96592.31
2023-05-02T10:10:00.946Z,96602.38
2023-05-02T10:12:32.294Z,96601.31
2023-05-02T10:15:05.689Z,96594.69
2023-05-02T10:17:42.873Z,96599.69
2023-05-02T10:20:14.538Z,96595.59
2023-05-02T10:22:50.173Z,96600.06
2023-05-02T10:25:19.673Z,96606.78
2023-05-02T10:27:49.691Z,96601.91
2023-05-02T10:30:19.806Z,96602.75
2023-05-02T10:32:50.345Z,96600.94
2023-05-02T10:35:20.766Z,96597.16
2023-05-02T10:37:52.619Z,96599.22
2023-05-02T10:40:21.917Z,96605.19
2023-05-02T10:42:53.369Z,96598.91
2023-05-02T10:45:37.951Z,96613.50
2023-05-02T10:48:17.262Z,96614.34
2023-05-02T10:50:48.201Z,96609.78
2023-05-02T10:53:33.978Z,96617.41
2023-05-02T11:00:26.557Z,96620.59
2023-05-02T11:07:20.651Z,96619.28
2023-05-02T11:09:51.279Z,96614.72
2023-05-02T11:17:12.529Z,96610.44
2023-05-02T11:20:30.252Z,96611.19
2023-05-02T11:27:43.846Z,96617.03
2023-05-02T11:30:14.231Z,96605.03
2023-05-02T11:37:03.318Z,96620.66
2023-05-02T11:39:33.040Z,96625.63
2023-05-02T11:46:28.807Z,96636.63
2023-05-02T11:53:13.363Z,96630.88
2023-05-02T11:55:49.837Z,96636.94
2023-05-02T12:02:40.843Z,96643.38
2023-05-02T12:05:11.470Z,96638.19
2023-05-02T12:11:54.337Z,96645.47
2023-05-02T12:18:52.143Z,96644.13
2023-05-02T12:21:21.230Z,96644.53
2023-05-02T12:28:10.718Z,96635.84
2023-05-02T12:30:41.968Z,96632.31
2023-05-02T12:36:38.016Z,96633.53
2023-05-02T12:43:25.355Z,96641.97
2023-05-02T12:46:11.646Z,96628.19
2023-05-02T12:53:01.657Z,96648.50
2023-05-02T13:04:18.954Z,96647.44
2023-05-02T13:06:48.501Z,96640.91
2023-05-02T13:13:43.456Z,96637.53
2023-05-02T13:20:30.701Z,96637.53
2023-05-02T13:23:00.005Z,96631.19
2023-05-02T13:29:55.440Z,96629.94
2023-05-02T13:32:24.554Z,96639.63
2023-05-02T13:39:06.144Z,96637.22
2023-05-02T13:46:01.508Z,96645.81
2023-05-02T13:48:33.238Z,96650.13
2023-05-02T13:55:16.087Z,96640.09
2023-05-02T13:57:46.086Z,96650.63
2023-05-02T14:00:16.616Z,96650.44
2023-05-02T14:02:48.742Z,96649.06
2023-05-02T14:05:18.268Z,96648.50
2023-05-02T14:07:47.488Z,96651.41
2023-05-02T14:10:17.222Z,96651.09
2023-05-02T14:12:46.491Z,96643.63
2023-05-02T14:15:15.667Z,96649.28
2023-05-02T14:17:45.628Z,96650.88
2023-05-02T14:20:16.760Z,96645.94
2023-05-02T14:26:58.970Z,96636.09
2023-05-02T14:29:28.172Z,96632.69
2023-05-02T14:36:06.395Z,96639.66
2023-05-02T14:38:38.058Z,96632.97
2023-05-02T14:41:15.957Z,96630.94
2023-05-02T14:43:45.562Z,96633.06
2023-05-02T14:46:14.883Z,96638.47
2023-05-02T14:48:44.358Z,96634.06
2023-05-02T14:51:15.280Z,96637.38
2023-05-02T14:53:44.493Z,96641.78
2023-05-02T14:56:18.703Z,96642.91
2023-05-02T15:07:51.854Z,96648.19
2023-05-02T15:10:22.685Z,96658.75
2023-05-02T15:17:10.234Z,96653.63
2023-05-02T15:19:39.434Z,96655.09
2023-05-02T15:22:08.532Z,96660.25
2023-05-02T15:24:39.247Z,96657.81
2023-05-02T15:27:09.996Z,96660.72
2023-05-02T15:29:39.807Z,96665.28
2023-05-02T15:32:09.513Z,96659.34
2023-05-02T15:38:51.958Z,96664.69
2023-05-02T15:41:22.983Z,96667.16
2023-05-02T15:48:11.066Z,96676.84
2023-05-02T15:50:40.446Z,96673.13
2023-05-02T15:57:29.748Z,96681.28
2023-05-02T15:59:58.868Z,96677.69
2023-05-02T16:02:28.463Z,96679.94
2023-05-02T16:04:57.939Z,96671.41
2023-05-02T16:07:27.246Z,96679.31
2023-05-02T16:14:11.611Z,96680.34
2023-05-02T16:16:41.806Z,96678.41
2023-05-02T16:23:36.156Z,96688.97
2023-05-02T16:26:05.241Z,96682.09
2023-05-02T16:32:55.527Z,96682.56
2023-05-02T16:35:24.757Z,96695.75
2023-05-02T16:37:54.176Z,96690.81
2023-05-02T16:40:23.464Z,96693.28
2023-05-02T16:42:52.558Z,96698.75
2023-05-02T16:45:22.168Z,96692.00
2023-05-02T16:47:58.266Z,96700.25
2023-05-02T16:54:35.634Z,96697.41
2023-05-02T16:57:04.924Z,96695.44
2023-05-02T17:07:00.276Z,96682.22
2023-05-02T17:13:44.048Z,96694.78
2023-05-02T17:16:13.371Z,96711.16
2023-05-02T17:18:42.744Z,96703.88
2023-05-02T17:21:11.956Z,96701.41
2023-05-02T17:23:41.436Z,96713.72
2023-05-02T17:26:14.735Z,96717.94
2023-05-02T17:28:46.291Z,96717.94
2023-05-02T17:35:23.396Z,96716.91
2023-05-02T17:37:52.996Z,96715.06
2023-05-02T17:44:36.567Z,96729.41
2023-05-02T17:47:06.690Z,96728.38
2023-05-02T17:53:53.900Z,96730.03
2023-05-02T17:56:29.462Z,96743.19
2023-05-02T17:58:59.275Z,96741.81
2023-05-02T18:10:25.252Z,96748.44
2023-05-02T18:12:54.862Z,96741.22
2023-05-02T18:19:42.817Z,96767.25
2023-05-02T18:22:12.217Z,96760.34
2023-05-02T18:24:42.165Z,96761.50
2023-05-02T18:27:12.659Z,96765.06
2023-05-02T18:29:42.176Z,96764.75
2023-05-02T18:32:11.267Z,96764.13
2023-05-02T18:34:40.761Z,96769.25
2023-05-02T18:37:10.271Z,96778.06
2023-05-02T18:39:39.672Z,96773.13
2023-05-02T18:46:22.501Z,96772.50
2023-05-02T18:48:51.799Z,96775.75
2023-05-02T18:55:40.070Z,96782.16
2023-05-02T18:58:09.367Z,96773.88
2023-05-02T19:05:04.926Z,96783.34
2023-05-02T19:11:54.505Z,96789.78
2023-05-02T19:14:23.905Z,96790.38
2023-05-02T19:21:14.139Z,96803.50
2023-05-02T19:23:44.963Z,96805.06
2023-05-02T19:30:27.816Z,96821.72
2023-05-02T19:37:22.624Z,96834.38
2023-05-02T19:39:52.020Z,96830.28
2023-05-02T19:46:41.070Z,96828.44
2023-05-02T19:49:10.099Z,96832.09
2023-05-02T19:51:39.301Z,96835.03
2023-05-02T19:54:10.234Z,96828.56
2023-05-02T19:56:39.433Z,96838.13
2023-05-02T19:59:08.627Z,96834.94
2023-05-02T20:01:37.861Z,96831.75
2023-05-02T20:04:07.105Z,96828.00
2023-05-02T20:06:36.764Z,96837.69
2023-05-02T20:09:06.029Z,96841.41
2023-05-02T20:11:36.766Z,96840.34
2023-05-02T20:14:05.961Z,96849.56
2023-05-02T20:16:36.264Z,96837.50
2023-05-02T20:19:05.392Z,96846.72
2023-05-02T20:21:34.768Z,96848.38
2023-05-02T20:24:07.459Z,96853.38
2023-05-02T20:26:38.615Z,96850.19
2023-05-02T20:33:33.522Z,96850.38
2023-05-02T20:36:06.811Z,96853.66
2023-05-02T20:42:55.586Z,96855.03
2023-05-02T20:45:25.297Z,96851.13
2023-05-02T20:52:19.511Z,96859.44
2023-05-02T20:54:49.416Z,96837.25
2023-05-02T20:57:18.511Z,96852.13
2023-05-02T20:59:49.344Z,96844.34
2023-05-02T21:02:18.443Z,96858.06
2023-05-02T21:13:50.256Z,96868.47
2023-05-02T21:16:22.416Z,96856.75
2023-05-02T21:23:11.425Z,96864.59
2023-05-02T21:25:40.707Z,96857.84
2023-05-02T21:28:10.309Z,96856.03
2023-05-02T21:30:39.610Z,96866.59
2023-05-02T21:33:10.582Z,96866.03
2023-05-02T21:35:40.355Z,96859.56
2023-05-02T21:38:09.660Z,96860.13
2023-05-02T21:40:39.567Z,96851.00
2023-05-02T21:43:12.864Z,96863.84
2023-05-02T21:50:04.629Z,96864.97
2023-05-02T21:52:33.907Z,96870.91
2023-05-02T21:59:21.967Z,96877.06
2023-05-02T22:01:51.947Z,96886.09
2023-05-02T22:08:42.856Z,96885.22
2023-05-02T22:11:12.238Z,96882.16
2023-05-02T22:13:41.414Z,96880.16
2023-05-02T22:16:10.864Z,96891.28
2023-05-02T22:18:40.333Z,96889.84
2023-05-02T22:25:23.872Z,96884.38
2023-05-02T22:27:53.077Z,96879.66
2023-05-02T22:34:29.156Z,96888.88
2023-05-02T22:36:58.560Z,96888.69
2023-05-02T22:42:30.640Z,96889.88
2023-05-02T22:49:20.136Z,96888.50
2023-05-02T22:51:50.972Z,96891.50
2023-05-02T22:54:22.761Z,96875.22
2023-05-02T22:56:52.547Z,96888.09
2023-05-02T22:59:23.586Z,96887.94
2023-05-02T23:01:52.904Z,96884.56
2023-05-02T23:04:21.971Z,96881.16
2023-05-02T23:06:51.197Z,96884.16
2023-05-02T23:09:20.462Z,96884.16
2023-05-02T23:11:49.762Z,96885.63
2023-05-02T23:14:21.012Z,96885.00
2023-05-02T23:21:05.795Z,96883.78
2023-05-02T23:23:35.506Z,96889.59
2023-05-02T23:30:23.579Z,96877.00
2023-05-02T23:32:52.982Z,96869.34
2023-05-02T23:35:22.563Z,96879.22
2023-05-02T23:37:53.509Z,96879.94
2023-05-02T23:40:22.500Z,96879.00
2023-05-02T23:42:51.827Z,96878.25
2023-05-02T23:45:21.609Z,96859.06
2023-05-02T23:47:50.954Z,96875.63
2023-05-02T23:50:20.189Z,96869.47
2023-05-02T23:57:03.762Z,96870.19
2023-05-02T23:59:33.064Z,96867.81
